createdAt,value
2023-03-22T00:01:32.568Z,99964.40
2023-03-22T00:04:00.555Z,99961.60
2023-03-22T00:06:28.617Z,99960.00
2023-03-22T00:08:56.510Z,99959.60
2023-03-22T00:11:25.873Z,99957.80
2023-03-22T00:13:54.936Z,99958.00
2023-03-22T00:16:23.095Z,99951.20
2023-03-22T00:18:51.527Z,99947.20
2023-03-22T00:21:19.331Z,99945.00
2023-03-22T00:23:47.124Z,99946.60
2023-03-22T00:26:15.492Z,99940.40
2023-03-22T00:28:43.819Z,99943.20
2023-03-22T00:31:11.816Z,99947.20
2023-03-22T00:33:39.863Z,99946.00
2023-03-22T00:36:09.921Z,99944.20
2023-03-22T00:38:43.875Z,99941.60
2023-03-22T00:41:14.492Z,99939.60
2023-03-22T00:43:42.440Z,99936.80
2023-03-22T00:46:10.964Z,99935.60
2023-03-22T00:48:39.173Z,99934.60
2023-03-22T00:51:07.775Z,99934.40
2023-03-22T00:53:37.585Z,99939.20
2023-03-22T00:56:06.427Z,99937.20
2023-03-22T00:58:43.674Z,99937.20
2023-03-22T01:01:14.865Z,99937.40
2023-03-22T01:03:43.432Z,99938.60
2023-03-22T01:06:13.772Z,99936.00
2023-03-22T01:08:41.943Z,99938.40
2023-03-22T01:11:10.122Z,99935.60
2023-03-22T01:13:38.322Z,99935.00
2023-03-22T01:16:07.146Z,99935.80
2023-03-22T01:18:35.579Z,99936.00
2023-03-22T01:21:04.023Z,99935.20
2023-03-22T01:23:32.069Z,99933.60
2023-03-22T01:26:00.076Z,99933.00
2023-03-22T01:28:28.766Z,99932.80
2023-03-22T01:30:56.851Z,99932.00
2023-03-22T01:33:24.878Z,99927.40
2023-03-22T01:35:53.231Z,99925.80
2023-03-22T01:38:22.402Z,99926.60
2023-03-22T01:40:57.448Z,99926.00
2023-03-22T01:43:25.930Z,99920.00
2023-03-22T01:45:54.493Z,99919.20
2023-03-22T01:48:35.734Z,99921.80
2023-03-22T01:51:07.122Z,99922.00
2023-03-22T01:53:41.544Z,99922.80
2023-03-22T01:56:10.034Z,99922.80
2023-03-22T01:58:38.122Z,99925.60
2023-03-22T02:01:07.767Z,99926.20
2023-03-22T02:03:54.317Z,99927.00
2023-03-22T02:06:22.538Z,99929.40
2023-03-22T02:08:58.506Z,99928.00
2023-03-22T02:11:44.062Z,99929.80
2023-03-22T02:14:27.186Z,99929.60
2023-03-22T02:17:16.272Z,99931.80
2023-03-22T02:20:38.871Z,99927.80
2023-03-22T02:23:54.581Z,99924.20
2023-03-22T02:26:59.716Z,99924.00
2023-03-22T02:30:07.204Z,99924.00
2023-03-22T02:33:02.562Z,99925.20
2023-03-22T02:35:39.620Z,99930.60
2023-03-22T02:38:38.385Z,99927.00
2023-03-22T02:41:18.346Z,99924.20
2023-03-22T02:44:20.993Z,99924.40
2023-03-22T02:47:03.260Z,99933.80
2023-03-22T02:49:39.039Z,99936.20
2023-03-22T02:52:24.078Z,99943.60
2023-03-22T02:55:07.810Z,99941.80
2023-03-22T02:57:45.287Z,99941.80
2023-03-22T03:00:14.220Z,99942.80
2023-03-22T03:02:54.198Z,99945.00
2023-03-22T03:05:22.187Z,99951.20
2023-03-22T03:07:52.639Z,99942.20
2023-03-22T03:10:21.390Z,99947.60
2023-03-22T03:12:49.394Z,99945.80
2023-03-22T03:15:19.679Z,99947.80
2023-03-22T03:18:14.780Z,99952.60
2023-03-22T03:20:43.053Z,99954.60
2023-03-22T03:23:22.242Z,99956.80
2023-03-22T03:26:31.850Z,99955.40
2023-03-22T03:29:10.250Z,99952.60
2023-03-22T03:32:14.453Z,99959.00
2023-03-22T03:34:49.787Z,99960.60
2023-03-22T03:37:20.122Z,99963.20
2023-03-22T03:40:24.242Z,99963.60
2023-03-22T03:42:53.288Z,99964.80
2023-03-22T03:45:22.285Z,99970.20
2023-03-22T03:47:57.000Z,99971.60
2023-03-22T03:50:25.655Z,99972.00
2023-03-22T03:52:54.790Z,99979.40
2023-03-22T03:55:23.317Z,99975.80
2023-03-22T03:57:54.173Z,99978.40
2023-03-22T04:00:22.161Z,99978.60
2023-03-22T04:03:17.389Z,99981.40
2023-03-22T04:06:12.839Z,99984.20
2023-03-22T04:08:45.736Z,99984.20
2023-03-22T04:11:15.511Z,99985.60
2023-03-22T04:13:48.258Z,99987.20
2023-03-22T04:16:18.440Z,99982.60
2023-03-22T04:18:46.533Z,99985.60
2023-03-22T04:21:16.644Z,99986.20
2023-03-22T04:23:58.933Z,99990.00
2023-03-22T04:26:29.175Z,99988.20
2023-03-22T04:29:26.367Z,99990.60
2023-03-22T04:31:58.286Z,99992.00
2023-03-22T04:34:33.737Z,99992.40
2023-03-22T04:37:04.081Z,99998.60
2023-03-22T04:39:34.259Z,99994.40
2023-03-22T04:42:25.858Z,99995.60
2023-03-22T04:45:15.682Z,99999.20
2023-03-22T04:47:46.087Z,99995.60
2023-03-22T04:50:14.119Z,99999.60
2023-03-22T04:52:48.207Z,99999.40
2023-03-22T04:55:16.757Z,100000.40
2023-03-22T04:57:45.499Z,100003.80
2023-03-22T05:00:13.857Z,100000.60
2023-03-22T05:02:42.161Z,100002.60
2023-03-22T05:05:17.633Z,100006.80
2023-03-22T05:07:46.855Z,100009.00
2023-03-22T05:10:14.860Z,100011.40
2023-03-22T05:12:43.592Z,100017.00
2023-03-22T05:15:32.998Z,100011.20
2023-03-22T05:18:01.756Z,100022.40
2023-03-22T05:20:29.748Z,100017.80
2023-03-22T05:23:19.297Z,100021.00
2023-03-22T05:25:48.602Z,100022.60
2023-03-22T05:28:19.740Z,100032.60
2023-03-22T05:30:57.230Z,100034.00
2023-03-22T05:33:51.588Z,100037.20
2023-03-22T05:36:20.810Z,100030.40
2023-03-22T05:39:09.636Z,100038.00
2023-03-22T05:41:38.178Z,100034.60
2023-03-22T05:44:06.281Z,100039.80
2023-03-22T05:46:34.893Z,100039.40
2023-03-22T05:49:21.367Z,100040.80
2023-03-22T05:51:50.721Z,100053.80
2023-03-22T05:54:38.643Z,100052.20
2023-03-22T05:57:07.442Z,100056.20
2023-03-22T05:59:35.340Z,100061.20
2023-03-22T06:02:03.543Z,100065.00
2023-03-22T06:04:32.278Z,100070.40
2023-03-22T06:07:08.980Z,100075.60
2023-03-22T06:09:57.876Z,100073.40
2023-03-22T06:12:29.996Z,100079.60
2023-03-22T06:15:03.915Z,100082.40
2023-03-22T06:17:38.012Z,100089.80
2023-03-22T06:20:12.023Z,100095.00
2023-03-22T06:22:41.941Z,100097.80
2023-03-22T06:25:10.747Z,100097.20
2023-03-22T06:27:42.466Z,100095.20
2023-03-22T06:30:10.723Z,100097.20
2023-03-22T06:33:11.169Z,100097.60
2023-03-22T06:35:41.443Z,100102.20
2023-03-22T06:38:11.101Z,100106.20
2023-03-22T06:40:39.372Z,100104.60
2023-03-22T06:43:07.647Z,100107.60
2023-03-22T06:45:37.027Z,100113.00
2023-03-22T06:48:05.690Z,100109.00
2023-03-22T06:50:59.731Z,100108.20
2023-03-22T06:53:33.080Z,100106.20
2023-03-22T06:56:01.148Z,100103.40
2023-03-22T06:58:30.381Z,100107.40
2023-03-22T07:00:59.718Z,100106.40
2023-03-22T07:03:28.286Z,100103.20
2023-03-22T07:06:04.865Z,100106.20
2023-03-22T07:08:34.650Z,100106.40
2023-03-22T07:11:04.818Z,100105.60
2023-03-22T07:13:32.938Z,100112.60
2023-03-22T07:16:03.645Z,100114.20
2023-03-22T07:18:46.500Z,100115.60
2023-03-22T07:21:15.365Z,100121.00
2023-03-22T07:23:44.370Z,100123.00
2023-03-22T07:26:15.078Z,100125.40
2023-03-22T07:28:46.246Z,100125.80
2023-03-22T07:31:15.968Z,100124.60
2023-03-22T07:33:58.120Z,100130.60
2023-03-22T07:36:26.961Z,100132.80
2023-03-22T07:38:55.256Z,100131.20
2023-03-22T07:41:30.253Z,100135.60
2023-03-22T07:44:27.394Z,100143.40
2023-03-22T07:47:13.997Z,100143.40
2023-03-22T07:50:08.172Z,100145.20
2023-03-22T07:52:37.234Z,100142.40
2023-03-22T07:55:05.979Z,100134.60
2023-03-22T07:57:35.821Z,100138.20
2023-03-22T08:00:06.135Z,100141.40
2023-03-22T08:03:02.051Z,100146.00
2023-03-22T08:05:59.227Z,100151.20
2023-03-22T08:08:27.476Z,100154.00
2023-03-22T08:10:55.782Z,100154.20
2023-03-22T08:13:23.897Z,100153.80
2023-03-22T08:15:52.021Z,100158.00
2023-03-22T08:18:20.123Z,100161.20
2023-03-22T08:20:59.347Z,100156.80
2023-03-22T08:23:40.810Z,100163.60
2023-03-22T08:26:29.926Z,100158.60
2023-03-22T08:29:01.610Z,100162.20
2023-03-22T08:31:33.248Z,100163.80
2023-03-22T08:34:01.373Z,100166.20
2023-03-22T08:36:29.378Z,100166.60
2023-03-22T08:39:01.581Z,100167.60
2023-03-22T08:41:56.336Z,100172.20
2023-03-22T08:44:25.131Z,100171.80
2023-03-22T08:46:53.636Z,100179.20
2023-03-22T08:49:23.924Z,100176.80
2023-03-22T08:51:59.802Z,100181.60
2023-03-22T08:54:46.975Z,100181.20
2023-03-22T08:57:38.614Z,100180.20
2023-03-22T09:00:45.685Z,100184.20
2023-03-22T09:03:37.840Z,100182.00
2023-03-22T09:06:07.954Z,100179.80
2023-03-22T09:08:38.468Z,100184.00
2023-03-22T09:11:17.890Z,100185.80
2023-03-22T09:13:48.162Z,100188.40
2023-03-22T09:16:17.549Z,100192.00
2023-03-22T09:18:46.600Z,100192.60
2023-03-22T09:21:17.907Z,100192.60
2023-03-22T09:23:51.152Z,100190.20
2023-03-22T09:26:23.847Z,100191.00
2023-03-22T09:28:52.766Z,100183.00
2023-03-22T09:31:21.230Z,100186.60
2023-03-22T09:33:53.944Z,100182.00
2023-03-22T09:36:21.842Z,100184.60
2023-03-22T09:38:50.145Z,100184.80
2023-03-22T09:41:28.283Z,100187.00
2023-03-22T09:44:01.316Z,100187.60
2023-03-22T09:46:31.296Z,100188.00
2023-03-22T09:49:00.276Z,100187.80
2023-03-22T09:51:37.339Z,100189.00
2023-03-22T09:54:14.314Z,100189.80
2023-03-22T09:56:42.290Z,100186.80
2023-03-22T09:59:16.421Z,100189.40
2023-03-22T10:02:00.871Z,100189.60
2023-03-22T10:04:35.162Z,100192.00
2023-03-22T10:07:07.287Z,100189.80
2023-03-22T10:09:36.271Z,100188.60
2023-03-22T10:12:10.440Z,100191.80
2023-03-22T10:14:40.961Z,100193.40
2023-03-22T10:17:11.807Z,100197.20
2023-03-22T10:19:54.125Z,100196.20
2023-03-22T10:22:25.321Z,100195.60
2023-03-22T10:24:54.674Z,100196.20
2023-03-22T10:27:23.469Z,100190.40
2023-03-22T10:30:11.710Z,100195.20
2023-03-22T10:32:57.468Z,100199.80
2023-03-22T10:35:26.658Z,100199.00
2023-03-22T10:37:56.142Z,100201.80
2023-03-22T10:40:27.158Z,100197.20
2023-03-22T10:42:57.400Z,100196.80
2023-03-22T10:45:25.693Z,100198.20
2023-03-22T10:48:00.284Z,100193.00
2023-03-22T10:50:43.372Z,100195.20
2023-03-22T10:53:23.562Z,100193.80
2023-03-22T10:55:55.689Z,100193.40
2023-03-22T10:58:34.363Z,100186.20
2023-03-22T11:01:06.514Z,100185.80
2023-03-22T11:03:51.014Z,100183.60
2023-03-22T11:06:21.083Z,100184.40
2023-03-22T11:09:02.189Z,100184.00
2023-03-22T11:11:32.593Z,100181.00
2023-03-22T11:14:13.606Z,100175.60
2023-03-22T11:16:50.928Z,100177.20
2023-03-22T11:19:23.378Z,100172.60
2023-03-22T11:21:51.270Z,100166.00
2023-03-22T11:24:19.306Z,100162.20
2023-03-22T11:27:17.206Z,100155.40
2023-03-22T11:29:52.039Z,100151.00
2023-03-22T11:32:32.903Z,100152.40
2023-03-22T11:35:11.315Z,100150.60
2023-03-22T11:37:43.781Z,100146.80
2023-03-22T11:40:17.329Z,100147.40
2023-03-22T11:42:46.517Z,100140.40
2023-03-22T11:45:16.200Z,100139.20
2023-03-22T11:47:44.207Z,100141.00
2023-03-22T11:50:28.750Z,100137.80
2023-03-22T11:52:57.265Z,100134.80
2023-03-22T11:55:25.432Z,100129.60
2023-03-22T11:57:55.999Z,100127.20
2023-03-22T12:00:26.127Z,100126.80
2023-03-22T12:02:58.492Z,100119.80
2023-03-22T12:05:34.943Z,100114.60
2023-03-22T12:08:11.845Z,100117.60
2023-03-22T12:10:44.503Z,100119.60
2023-03-22T12:13:23.747Z,100124.80
2023-03-22T12:15:59.078Z,100119.60
2023-03-22T12:18:29.834Z,100114.00
2023-03-22T12:20:59.218Z,100112.20
2023-03-22T12:23:32.154Z,100109.60
2023-03-22T12:26:12.486Z,100105.00
2023-03-22T12:28:55.608Z,100107.80
2023-03-22T12:31:27.840Z,100106.40
2023-03-22T12:33:58.368Z,100103.40
2023-03-22T12:36:37.256Z,100105.40
2023-03-22T12:39:06.603Z,100106.20
2023-03-22T12:41:42.616Z,100109.60
2023-03-22T12:44:39.556Z,100103.20
2023-03-22T12:47:16.580Z,100093.80
2023-03-22T12:49:56.639Z,100095.00
2023-03-22T12:52:26.315Z,100099.00
2023-03-22T12:54:56.761Z,100101.00
2023-03-22T12:57:24.735Z,100099.80
2023-03-22T12:59:53.655Z,100099.00
2023-03-22T13:02:32.250Z,100102.60
2023-03-22T13:05:05.326Z,100100.40
2023-03-22T13:07:37.576Z,100096.00
2023-03-22T13:10:34.231Z,100098.60
2023-03-22T13:13:24.438Z,100098.20
2023-03-22T13:16:13.555Z,100096.80
2023-03-22T13:18:45.384Z,100099.00
2023-03-22T13:21:27.280Z,100104.00
2023-03-22T13:24:15.562Z,100099.80
2023-03-22T13:26:51.674Z,100091.40
2023-03-22T13:29:19.509Z,100089.20
2023-03-22T13:31:53.814Z,100089.40
2023-03-22T13:34:44.183Z,100088.40
2023-03-22T13:37:44.507Z,100087.80
2023-03-22T13:40:49.861Z,100084.80
2023-03-22T13:43:28.569Z,100087.60
2023-03-22T13:46:19.914Z,100083.20
2023-03-22T13:48:48.770Z,100092.60
2023-03-22T13:51:26.354Z,100090.80
2023-03-22T13:54:18.742Z,100092.40
2023-03-22T13:56:56.441Z,100090.00
2023-03-22T13:59:27.914Z,100087.40
2023-03-22T14:02:23.683Z,100084.60
2023-03-22T14:04:57.240Z,100086.40
2023-03-22T14:07:41.214Z,100078.00
2023-03-22T14:10:16.279Z,100083.00
2023-03-22T14:12:48.243Z,100084.80
2023-03-22T14:15:18.943Z,100090.80
2023-03-22T14:17:50.767Z,100091.80
2023-03-22T14:20:21.221Z,100088.60
